createdAt,value
2018-09-23T00:00:21.039Z,0
2018-09-23T00:01:21.016Z,0
2018-09-23T00:02:21.031Z,0
2018-09-23T00:03:21.051Z,0
2018-09-23T00:04:35.833Z,0
2018-09-23T00:05:21.090Z,0
2018-09-23T00:06:21.108Z,0
2018-09-23T00:07:21.135Z,0
2018-09-23T00:08:21.155Z,0
2018-09-23T00:09:35.832Z,0
2018-09-23T00:10:21.197Z,0
2018-09-23T00:11:21.215Z,0
2018-09-23T00:12:20.987Z,0
2018-09-23T00:13:21.257Z,0
2018-09-23T00:14:21.297Z,0
2018-09-23T00:15:21.302Z,0
2018-09-23T00:16:35.979Z,0
2018-09-23T00:17:21.340Z,0
2018-09-23T00:18:21.363Z,0
2018-09-23T00:19:36.039Z,0
2018-09-23T00:20:21.404Z,0
2018-09-23T00:21:21.421Z,0
2018-09-23T00:22:35.911Z,0
2018-09-23T00:23:21.207Z,0
2018-09-23T00:24:21.488Z,0
2018-09-23T00:25:21.507Z,0
2018-09-23T00:26:36.184Z,0
2018-09-23T00:27:21.642Z,0
2018-09-23T00:28:21.572Z,0
2018-09-23T00:29:21.327Z,0
2018-09-23T00:30:21.607Z,0
2018-09-23T00:31:21.634Z,0
2018-09-23T00:32:36.307Z,0
2018-09-23T00:33:21.669Z,0
2018-09-23T00:34:21.437Z,0
2018-09-23T00:35:21.761Z,0
2018-09-23T00:36:36.396Z,0
2018-09-23T00:38:21.770Z,0
2018-09-23T00:39:21.797Z,0
2018-09-23T00:40:36.471Z,0
2018-09-23T00:41:36.233Z,0
2018-09-23T00:42:36.255Z,0
2018-09-23T00:43:21.610Z,0
2018-09-23T00:44:21.640Z,0
2018-09-23T00:45:21.917Z,0
2018-09-23T00:46:21.702Z,0
2018-09-23T00:47:21.955Z,0
2018-09-23T00:48:36.375Z,0
2018-09-23T00:49:21.733Z,0
2018-09-23T00:50:21.756Z,0
2018-09-23T00:51:22.045Z,0
2018-09-23T00:52:36.712Z,0
2018-09-23T00:53:22.075Z,0
2018-09-23T00:54:22.096Z,0
2018-09-23T00:55:22.117Z,0
2018-09-23T00:56:21.884Z,0
2018-09-23T00:57:21.900Z,0
2018-09-23T00:58:36.835Z,0
2018-09-23T00:59:21.940Z,0
2018-09-23T01:00:22.233Z,0
2018-09-23T01:01:22.242Z,0
2018-09-23T01:02:22.260Z,0
2018-09-23T01:03:22.281Z,0
2018-09-23T01:04:36.701Z,0
2018-09-23T01:05:22.324Z,0
2018-09-23T01:06:22.347Z,0
2018-09-23T01:07:22.366Z,0
2018-09-23T01:08:22.386Z,0
2018-09-23T01:09:22.405Z,0
2018-09-23T01:10:22.418Z,0
2018-09-23T01:11:22.445Z,0
2018-09-23T01:12:22.464Z,0
2018-09-23T01:13:22.231Z,0
2018-09-23T01:14:21.995Z,0
2018-09-23T01:15:22.523Z,0
2018-09-23T01:16:22.555Z,0
2018-09-23T01:17:22.567Z,0
2018-09-23T01:18:22.726Z,0
2018-09-23T01:19:37.270Z,0
2018-09-23T01:20:22.653Z,0
2018-09-23T01:21:22.407Z,0
2018-09-23T01:22:22.669Z,0
2018-09-23T01:23:37.349Z,0
2018-09-23T01:24:22.714Z,0
2018-09-23T01:25:22.473Z,0
2018-09-23T01:26:22.749Z,0
2018-09-23T01:27:22.767Z,0
2018-09-23T01:28:22.791Z,0
2018-09-23T01:29:37.468Z,0
2018-09-23T01:30:22.831Z,0
2018-09-23T01:31:22.335Z,0
2018-09-23T01:33:22.893Z,0
2018-09-23T01:34:22.906Z,0
2018-09-23T01:35:22.673Z,0
2018-09-23T01:36:37.614Z,0
2018-09-23T01:37:37.639Z,0
2018-09-23T01:38:22.994Z,0
2018-09-23T01:40:22.774Z,0
2018-09-23T01:41:23.049Z,0
2018-09-23T01:42:22.813Z,0
2018-09-23T01:43:23.140Z,0
2018-09-23T01:44:37.515Z,0
2018-09-23T01:45:22.620Z,0
2018-09-23T01:46:37.821Z,0
2018-09-23T01:47:23.178Z,0
2018-09-23T01:48:23.197Z,0
2018-09-23T01:49:22.697Z,0
2018-09-23T01:50:22.977Z,0
2018-09-23T01:51:37.915Z,0
2018-09-23T01:52:23.272Z,0
2018-09-23T01:53:23.307Z,0
2018-09-23T01:54:37.974Z,0
2018-09-23T01:55:23.083Z,0
2018-09-23T01:56:23.101Z,0
2018-09-23T01:57:23.126Z,0
2018-09-23T01:58:22.877Z,0
2018-09-23T01:59:23.165Z,0
2018-09-23T02:00:23.483Z,0
2018-09-23T02:01:23.455Z,0
2018-09-23T02:02:38.133Z,0
2018-09-23T02:03:22.985Z,0
2018-09-23T02:04:23.264Z,0
2018-09-23T02:05:23.538Z,0
2018-09-23T02:06:23.560Z,0
2018-09-23T02:07:37.720Z,0
2018-09-23T02:08:23.597Z,0
2018-09-23T02:09:23.669Z,0
2018-09-23T02:10:23.637Z,0
2018-09-23T02:12:23.424Z,0
2018-09-23T02:13:23.436Z,0
2018-09-23T02:14:23.463Z,0
2018-09-23T02:15:23.225Z,0
2018-09-23T02:16:38.421Z,0
2018-09-23T02:17:23.521Z,0
2018-09-23T02:18:23.804Z,0
2018-09-23T02:19:23.818Z,0
2018-09-23T02:20:23.578Z,0
2018-09-23T02:21:24.196Z,0
2018-09-23T02:22:23.620Z,0
2018-09-23T02:23:38.301Z,0
2018-09-23T02:24:23.926Z,0
2018-09-23T02:25:23.689Z,0
2018-09-23T02:26:23.441Z,0
2018-09-23T02:27:23.728Z,0
2018-09-23T02:28:24.010Z,0
2018-09-23T02:29:38.681Z,0
2018-09-23T02:30:38.721Z,0
2018-09-23T02:31:23.809Z,0
2018-09-23T02:32:24.098Z,0
2018-09-23T02:33:24.106Z,0
2018-09-23T02:34:24.118Z,0
2018-09-23T02:35:24.148Z,0
2018-09-23T02:36:23.899Z,0
2018-09-23T02:37:24.176Z,0
2018-09-23T02:38:24.211Z,0
2018-09-23T02:39:38.878Z,0
2018-09-23T02:40:24.248Z,0
2018-09-23T02:41:24.256Z,0
2018-09-23T02:42:24.035Z,0
2018-09-23T02:43:38.963Z,0
2018-09-23T02:44:24.321Z,0
2018-09-23T02:45:24.335Z,0
2018-09-23T02:46:24.361Z,0
2018-09-23T02:47:24.473Z,0
2018-09-23T02:48:24.410Z,0
2018-09-23T02:49:24.416Z,0
2018-09-23T02:50:24.182Z,0
2018-09-23T02:51:24.455Z,0
2018-09-23T02:52:24.478Z,0
2018-09-23T02:53:24.507Z,0
2018-09-23T02:54:38.918Z,0
2018-09-23T02:55:39.196Z,0
2018-09-23T02:56:24.554Z,0
2018-09-23T02:57:39.233Z,0
2018-09-23T02:58:24.601Z,0
2018-09-23T02:59:24.352Z,0
2018-09-23T03:00:24.119Z,0
2018-09-23T03:01:24.652Z,0
2018-09-23T03:02:39.335Z,0
2018-09-23T03:03:24.695Z,0
2018-09-23T03:04:24.716Z,0
2018-09-23T03:05:24.747Z,0
2018-09-23T03:06:24.493Z,0
2018-09-23T03:07:39.436Z,0
2018-09-23T03:08:24.536Z,0
2018-09-23T03:09:24.821Z,0
2018-09-23T03:10:24.828Z,0
2018-09-23T03:12:24.354Z,0
2018-09-23T03:13:24.374Z,0
2018-09-23T03:14:24.917Z,0
2018-09-23T03:15:39.604Z,0
2018-09-23T03:16:24.698Z,0
2018-09-23T03:17:24.715Z,0
2018-09-23T03:18:39.651Z,0
2018-09-23T03:19:24.766Z,0
2018-09-23T03:20:25.038Z,0
2018-09-23T03:21:25.062Z,0
2018-09-23T03:22:25.073Z,0
2018-09-23T03:23:25.091Z,0
2018-09-23T03:24:25.109Z,0
2018-09-23T03:25:24.878Z,0
2018-09-23T03:26:39.552Z,0
2018-09-23T03:27:25.167Z,0
2018-09-23T03:28:24.938Z,0
2018-09-23T03:29:25.221Z,0
2018-09-23T03:30:25.248Z,0
2018-09-23T03:31:25.283Z,0
2018-09-23T03:32:25.272Z,0
2018-09-23T03:33:25.291Z,0
2018-09-23T03:34:25.308Z,0
2018-09-23T03:35:25.345Z,0
2018-09-23T03:36:25.350Z,0
2018-09-23T03:37:25.387Z,0
2018-09-23T03:38:25.127Z,0
2018-09-23T03:39:25.407Z,0
2018-09-23T03:40:25.430Z,0
2018-09-23T03:41:25.443Z,0
2018-09-23T03:42:40.131Z,0
2018-09-23T03:43:25.485Z,0
2018-09-23T03:45:40.182Z,0
2018-09-23T03:47:25.566Z,0
2018-09-23T03:48:25.331Z,0
2018-09-23T03:49:25.604Z,0
2018-09-23T03:50:25.108Z,0
2018-09-23T03:51:25.386Z,0
2018-09-23T03:52:25.665Z,0
2018-09-23T03:53:25.696Z,0
2018-09-23T03:54:25.700Z,0
2018-09-23T03:55:25.718Z,0
2018-09-23T03:56:25.798Z,0
2018-09-23T03:57:25.498Z,0
2018-09-23T03:58:40.454Z,0
2018-09-23T03:59:40.458Z,0
2018-09-23T04:00:25.558Z,0
2018-09-23T04:01:25.578Z,0
2018-09-23T04:02:25.607Z,0
2018-09-23T04:03:25.623Z,0
2018-09-23T04:04:25.900Z,0
2018-09-23T04:06:40.595Z,0
2018-09-23T04:07:25.956Z,0
2018-09-23T04:08:25.718Z,0
2018-09-23T04:09:25.992Z,0
2018-09-23T04:10:40.678Z,0
2018-09-23T04:11:26.033Z,0
2018-09-23T04:12:25.810Z,0
2018-09-23T04:13:26.067Z,0
2018-09-23T04:14:40.752Z,0
2018-09-23T04:15:26.112Z,0
2018-09-23T04:16:25.870Z,0
2018-09-23T04:17:26.157Z,0
2018-09-23T04:18:26.016Z,0
2018-09-23T04:19:26.194Z,0
2018-09-23T04:20:26.218Z,4
2018-09-23T04:21:26.225Z,4
2018-09-23T04:22:26.245Z,4
2018-09-23T04:23:40.668Z,4
2018-09-23T04:24:26.024Z,4
2018-09-23T04:25:26.324Z,4
2018-09-23T04:26:26.325Z,4
2018-09-23T04:27:26.359Z,4
2018-09-23T04:28:26.370Z,8
2018-09-23T04:29:41.050Z,8
2018-09-23T04:31:26.427Z,12
2018-09-23T04:32:26.447Z,12
2018-09-23T04:33:26.474Z,16
2018-09-23T04:34:26.482Z,16
2018-09-23T04:35:26.242Z,20
2018-09-23T04:36:26.014Z,20
2018-09-23T04:37:26.537Z,24
2018-09-23T04:38:26.298Z,24
2018-09-23T04:39:26.597Z,24
2018-09-23T04:41:26.360Z,32
2018-09-23T04:43:26.665Z,48
2018-09-23T04:44:26.725Z,52
2018-09-23T04:45:41.359Z,60
2018-09-23T04:46:26.712Z,64
2018-09-23T04:47:26.739Z,72
2018-09-23T04:49:26.776Z,100
2018-09-23T04:50:26.798Z,112
2018-09-23T04:53:26.603Z,176
2018-09-23T04:54:41.530Z,184
2018-09-23T04:55:27.145Z,192
2018-09-23T04:56:26.909Z,196
2018-09-23T04:57:41.597Z,260
2018-09-23T04:58:26.950Z,288
2018-09-23T04:59:26.711Z,316
2018-09-23T05:00:26.994Z,352
2018-09-23T05:01:41.412Z,392
2018-09-23T05:02:41.690Z,424
2018-09-23T05:03:27.049Z,464
2018-09-23T05:04:26.809Z,516
2018-09-23T05:05:27.135Z,564
2018-09-23T05:06:27.109Z,572
2018-09-23T05:08:27.148Z,648
2018-09-23T05:09:41.826Z,688
2018-09-23T05:10:41.847Z,632
2018-09-23T05:11:26.951Z,528
2018-09-23T05:12:26.965Z,504
2018-09-23T05:13:26.777Z,468
2018-09-23T05:14:27.278Z,464
2018-09-23T05:15:27.287Z,496
2018-09-23T05:16:27.306Z,556
2018-09-23T05:17:41.983Z,564
2018-09-23T05:18:27.084Z,600
2018-09-23T05:20:27.122Z,600
2018-09-23T05:21:27.410Z,600
2018-09-23T05:22:27.163Z,584
2018-09-23T05:23:27.543Z,564
2018-09-23T05:25:27.489Z,664
2018-09-23T05:26:27.251Z,724
2018-09-23T05:27:27.550Z,824
2018-09-23T05:28:27.539Z,956
2018-09-23T05:29:27.306Z,996
2018-09-23T05:30:27.067Z,996
2018-09-23T05:31:27.610Z,1068
2018-09-23T05:32:42.284Z,1208
2018-09-23T05:33:42.303Z,1340
2018-09-23T05:34:42.323Z,1444
2018-09-23T05:35:27.738Z,1480
2018-09-23T05:37:42.377Z,1620
2018-09-23T05:38:42.404Z,1720
2018-09-23T05:39:27.761Z,1776
2018-09-23T05:41:27.805Z,1748
2018-09-23T05:42:27.834Z,1736
2018-09-23T05:43:27.847Z,1632
2018-09-23T05:44:27.861Z,1608
2018-09-23T05:45:27.627Z,1628
2018-09-23T05:46:27.646Z,1672
2018-09-23T05:47:28.070Z,1776
2018-09-23T05:48:27.936Z,1936
2018-09-23T05:49:42.627Z,2072
2018-09-23T05:50:27.979Z,2144
2018-09-23T05:51:27.745Z,2292
2018-09-23T05:52:28.031Z,2480
2018-09-23T05:53:28.085Z,2592
2018-09-23T05:54:27.802Z,2624
2018-09-23T05:55:27.833Z,2604
2018-09-23T05:56:28.105Z,2724
2018-09-23T05:57:42.779Z,2820
2018-09-23T05:58:28.136Z,2880
2018-09-23T05:59:28.159Z,2924
2018-09-23T06:00:42.845Z,2988
2018-09-23T06:01:28.201Z,3084
2018-09-23T06:02:28.217Z,3140
2018-09-23T06:03:28.241Z,3060
2018-09-23T06:04:42.921Z,3028
2018-09-23T06:06:28.300Z,3152
2018-09-23T06:07:28.068Z,3228
2018-09-23T06:09:28.361Z,3124
2018-09-23T06:10:43.049Z,3000
2018-09-23T06:11:28.143Z,2940
2018-09-23T06:12:28.421Z,2904
2018-09-23T06:13:42.845Z,2852
2018-09-23T06:14:28.465Z,2792
2018-09-23T06:15:28.583Z,2764
2018-09-23T06:16:28.506Z,2760
2018-09-23T06:18:28.841Z,2568
2018-09-23T06:19:28.571Z,2520
2018-09-23T06:20:28.586Z,2604
2018-09-23T06:21:28.402Z,2612
2018-09-23T06:22:28.683Z,2596
2018-09-23T06:23:28.660Z,2864
2018-09-23T06:24:43.331Z,3520
2018-09-23T06:25:28.955Z,4224
2018-09-23T06:26:28.717Z,4704
2018-09-23T06:27:28.523Z,5168
2018-09-23T06:28:28.753Z,5360
2018-09-23T06:29:43.429Z,4876
2018-09-23T06:30:28.631Z,4760
2018-09-23T06:31:28.825Z,4584
2018-09-23T06:32:28.836Z,4780
2018-09-23T06:33:28.867Z,5200
2018-09-23T06:34:28.357Z,5652
2018-09-23T06:35:28.641Z,6308
2018-09-23T06:36:43.571Z,6516
2018-09-23T06:37:28.676Z,6672
2018-09-23T06:38:43.624Z,6688
2018-09-23T06:39:43.637Z,6884
2018-09-23T06:40:43.661Z,7436
2018-09-23T06:41:29.013Z,7984
2018-09-23T06:42:28.831Z,8112
2018-09-23T06:43:28.803Z,7720
2018-09-23T06:44:28.921Z,7068
2018-09-23T06:45:28.847Z,6372
2018-09-23T06:46:43.783Z,5596
2018-09-23T06:47:28.885Z,5484
2018-09-23T06:48:29.164Z,5596
2018-09-23T06:49:28.930Z,5612
2018-09-23T06:50:29.206Z,5256
2018-09-23T06:51:43.633Z,5124
2018-09-23T06:52:43.909Z,5468
2018-09-23T06:53:29.270Z,5408
2018-09-23T06:55:43.763Z,6240
2018-09-23T06:56:29.079Z,6692
2018-09-23T06:57:29.605Z,7064
2018-09-23T06:58:29.122Z,7304
2018-09-23T06:59:29.142Z,7676
2018-09-23T07:01:44.101Z,8784
2018-09-23T07:03:29.477Z,9676
2018-09-23T07:04:29.638Z,10436
2018-09-23T07:05:29.531Z,10952
2018-09-23T07:06:29.284Z,10500
2018-09-23T07:07:29.307Z,9556
2018-09-23T07:08:58.910Z,8188
2018-09-23T07:09:29.610Z,7908
2018-09-23T07:10:30.112Z,7756
2018-09-23T07:12:29.685Z,8416
2018-09-23T07:14:29.717Z,10712
2018-09-23T07:15:29.221Z,12436
2018-09-23T07:16:29.243Z,14308
2018-09-23T07:17:44.439Z,18464
2018-09-23T07:18:29.815Z,15712
2018-09-23T07:19:29.837Z,16120
2018-09-23T07:20:29.891Z,17600
2018-09-23T07:21:29.868Z,17088
2018-09-23T07:22:29.887Z,15564
2018-09-23T07:23:29.647Z,14884
2018-09-23T07:24:44.595Z,13872
2018-09-23T07:25:29.709Z,13564
2018-09-23T07:26:29.979Z,13348
2018-09-23T07:27:30.001Z,13008
2018-09-23T07:28:29.758Z,13492
2018-09-23T07:29:30.047Z,13412
2018-09-23T07:30:29.804Z,11860
2018-09-23T07:31:29.828Z,12456
2018-09-23T07:32:29.852Z,13756
2018-09-23T07:33:30.129Z,13736
2018-09-23T07:34:30.153Z,15124
2018-09-23T07:35:29.915Z,17600
2018-09-23T07:36:29.939Z,16440
2018-09-23T07:37:30.275Z,18432
2018-09-23T07:38:30.355Z,24704
2018-09-23T07:39:44.735Z,28320
2018-09-23T07:40:44.949Z,23808
2018-09-23T07:41:44.971Z,19840
2018-09-23T07:42:30.333Z,19584
2018-09-23T07:43:30.360Z,37760
2018-09-23T07:44:30.120Z,24224
2018-09-23T07:45:45.062Z,22784
2018-09-23T07:46:30.422Z,17696
2018-09-23T07:47:30.451Z,15568
2018-09-23T07:48:30.218Z,17536
2018-09-23T07:49:44.893Z,18688
2018-09-23T07:50:30.513Z,19520
2018-09-23T07:51:30.287Z,19072
2018-09-23T07:52:30.562Z,16060
2018-09-23T07:53:45.254Z,20864
2018-09-23T07:54:30.354Z,16252
2018-09-23T07:55:30.375Z,14880
2018-09-23T07:56:30.248Z,14416
2018-09-23T07:57:30.679Z,13132
2018-09-23T07:58:30.184Z,13660
2018-09-23T07:59:30.723Z,14512
2018-09-23T08:00:30.753Z,17440
2018-09-23T08:01:45.178Z,20704
2018-09-23T08:02:30.290Z,21856
2018-09-23T08:03:31.113Z,23232
2018-09-23T08:04:45.499Z,23264
2018-09-23T08:05:45.266Z,23616
2018-09-23T08:06:30.628Z,17888
2018-09-23T08:07:30.907Z,20224
2018-09-23T08:08:45.597Z,18464
2018-09-23T08:09:30.955Z,20672
2018-09-23T08:10:30.979Z,19776
2018-09-23T08:11:45.408Z,23392
2018-09-23T08:12:46.203Z,25216
2018-09-23T08:13:31.989Z,16100
2018-09-23T08:14:46.825Z,12796
2018-09-23T08:16:30.862Z,13740
2018-09-23T08:18:45.311Z,13312
2018-09-23T08:19:31.773Z,13428
2018-09-23T08:20:32.269Z,13632
2018-09-23T08:21:30.724Z,13644
2018-09-23T08:22:31.270Z,13340
2018-09-23T08:23:31.034Z,13160
2018-09-23T08:24:31.060Z,13548
2018-09-23T08:25:31.601Z,13956
2018-09-23T08:26:31.540Z,13640
2018-09-23T08:27:46.044Z,14928
2018-09-23T08:28:31.403Z,16716
2018-09-23T08:29:31.432Z,15664
2018-09-23T08:30:31.198Z,14868
2018-09-23T08:31:31.216Z,14716
2018-09-23T08:32:31.503Z,13912
2018-09-23T08:33:31.526Z,13092
2018-09-23T08:34:31.292Z,12388
2018-09-23T08:35:31.309Z,11368
2018-09-23T08:36:31.079Z,10580
2018-09-23T08:37:31.964Z,9992
2018-09-23T08:38:31.382Z,9524
2018-09-23T08:39:31.403Z,9232
2018-09-23T08:40:31.686Z,8852
2018-09-23T08:41:31.717Z,8532
2018-09-23T08:42:31.738Z,8240
2018-09-23T08:43:46.416Z,7848
2018-09-23T08:44:31.788Z,7760
2018-09-23T08:45:31.811Z,7668
2018-09-23T08:46:32.029Z,7508
2018-09-23T08:47:31.847Z,7476
2018-09-23T08:49:31.643Z,7232
2018-09-23T08:50:31.917Z,6912
2018-09-23T08:51:31.686Z,6712
2018-09-23T08:52:32.017Z,6636
2018-09-23T08:53:31.990Z,6688
2018-09-23T08:54:32.010Z,6808
2018-09-23T08:55:32.036Z,6884
2018-09-23T08:57:31.850Z,7068
2018-09-23T08:58:31.948Z,7156
2018-09-23T08:59:46.532Z,7320
2018-09-23T09:00:31.900Z,7512
2018-09-23T09:01:32.185Z,7840
2018-09-23T09:02:31.938Z,8288
2018-09-23T09:03:32.011Z,8988
2018-09-23T09:04:31.985Z,9360
2018-09-23T09:05:46.667Z,9244
2018-09-23T09:06:32.031Z,9008
2018-09-23T09:07:32.311Z,8648
2018-09-23T09:08:31.822Z,8300
2018-09-23T09:09:47.033Z,8000
2018-09-23T09:10:32.385Z,7860
2018-09-23T09:11:47.434Z,7852
2018-09-23T09:12:32.175Z,7892
2018-09-23T09:13:32.453Z,7840
2018-09-23T09:14:47.145Z,7804
2018-09-23T09:15:31.984Z,7776
2018-09-23T09:16:32.523Z,7660
2018-09-23T09:17:32.290Z,7608
2018-09-23T09:19:31.817Z,7700
2018-09-23T09:20:32.619Z,7576
2018-09-23T09:21:32.378Z,7560
2018-09-23T09:22:32.674Z,7652
2018-09-23T09:23:32.425Z,7788
2018-09-23T09:24:32.450Z,7908
2018-09-23T09:25:32.471Z,7916
2018-09-23T09:26:32.848Z,7844
2018-09-23T09:27:32.777Z,7856
2018-09-23T09:28:47.463Z,8108
2018-09-23T09:29:32.573Z,8280
2018-09-23T09:30:32.841Z,8500
2018-09-23T09:32:32.892Z,8852
2018-09-23T09:33:32.919Z,9016
2018-09-23T09:35:32.823Z,9368
2018-09-23T09:36:32.732Z,9360
2018-09-23T09:37:33.007Z,9356
2018-09-23T09:38:33.329Z,9536
2018-09-23T09:39:33.059Z,9788
2018-09-23T09:40:33.080Z,9844
2018-09-23T09:41:32.840Z,9708
2018-09-23T09:42:32.866Z,9408
2018-09-23T09:43:33.150Z,9268
2018-09-23T09:44:33.177Z,9348
2018-09-23T09:45:32.683Z,9420
2018-09-23T09:46:47.888Z,9668
2018-09-23T09:48:33.269Z,9848
2018-09-23T09:49:33.294Z,9616
2018-09-23T09:50:33.053Z,9360
2018-09-23T09:51:33.075Z,9492
2018-09-23T09:52:48.024Z,10244
2018-09-23T09:53:48.163Z,10904
2018-09-23T09:54:33.417Z,11224
2018-09-23T09:55:33.420Z,11332
2018-09-23T09:56:48.109Z,10800
2018-09-23T09:57:33.473Z,10120
2018-09-23T09:58:33.503Z,9568
2018-09-23T09:59:33.262Z,11080
2018-09-23T10:00:33.542Z,11420
2018-09-23T10:01:33.573Z,11588
2018-09-23T10:02:48.251Z,11316
2018-09-23T10:05:33.402Z,11436
2018-09-23T10:06:33.688Z,11604
2018-09-23T10:07:33.721Z,11380
2018-09-23T10:08:33.731Z,11164
2018-09-23T10:09:33.753Z,11788
2018-09-23T10:10:33.787Z,12532
2018-09-23T10:11:34.121Z,12296
2018-09-23T10:12:33.825Z,11912
2018-09-23T10:13:33.851Z,12044
2018-09-23T10:14:33.917Z,12628
2018-09-23T10:15:33.901Z,12632
2018-09-23T10:16:33.930Z,12488
2018-09-23T10:17:33.943Z,12140
2018-09-23T10:19:33.990Z,11808
2018-09-23T10:20:34.020Z,12128
2018-09-23T10:21:48.442Z,13700
2018-09-23T10:22:49.089Z,14220
2018-09-23T10:23:34.486Z,14812
2018-09-23T10:24:34.111Z,14664
2018-09-23T10:25:48.796Z,13744
2018-09-23T10:26:34.165Z,13068
2018-09-23T10:27:34.183Z,12832
2018-09-23T10:28:34.292Z,12300
2018-09-23T10:29:34.229Z,12340
2018-09-23T10:30:34.258Z,12476
2018-09-23T10:32:34.360Z,14128
2018-09-23T10:34:48.754Z,13772
2018-09-23T10:35:48.779Z,13252
2018-09-23T10:36:49.058Z,12848
2018-09-23T10:37:34.430Z,12476
2018-09-23T10:38:34.523Z,11936
2018-09-23T10:39:34.473Z,11064
2018-09-23T10:40:34.235Z,10284
2018-09-23T10:41:34.615Z,9984
2018-09-23T10:42:49.205Z,9880
2018-09-23T10:43:34.361Z,9868
2018-09-23T10:44:48.994Z,9576
2018-09-23T10:45:34.613Z,9472
2018-09-23T10:46:34.382Z,9544
2018-09-23T10:47:34.673Z,9576
2018-09-23T10:48:34.703Z,9860
2018-09-23T10:49:49.372Z,9276
2018-09-23T10:50:34.488Z,9040
2018-09-23T10:51:34.778Z,8736
2018-09-23T10:52:49.188Z,8868
2018-09-23T10:53:34.812Z,9260
2018-09-23T10:54:34.575Z,9976
2018-09-23T10:56:34.621Z,10948
2018-09-23T10:57:34.646Z,10728
2018-09-23T10:58:34.414Z,10100
2018-09-23T10:59:35.377Z,9600
2018-09-23T11:00:34.981Z,9436
2018-09-23T11:01:35.003Z,9332
2018-09-23T11:02:34.819Z,9052
2018-09-23T11:03:35.094Z,8992
2018-09-23T11:04:35.076Z,8540
2018-09-23T11:05:35.098Z,7712
2018-09-23T11:06:35.129Z,7136
2018-09-23T11:07:35.460Z,6812
2018-09-23T11:08:35.170Z,6696
2018-09-23T11:09:35.241Z,6736
2018-09-23T11:10:34.957Z,6688
2018-09-23T11:11:35.241Z,6556
2018-09-23T11:12:35.262Z,6544
2018-09-23T11:13:35.289Z,6456
2018-09-23T11:14:35.325Z,6616
2018-09-23T11:15:50.001Z,6832
2018-09-23T11:16:35.359Z,6760
2018-09-23T11:17:35.125Z,6696
2018-09-23T11:18:35.409Z,6224
2018-09-23T11:19:35.433Z,5500
2018-09-23T11:20:35.467Z,5236
2018-09-23T11:21:50.134Z,5248
2018-09-23T11:22:35.500Z,5544
2018-09-23T11:23:35.376Z,5976
2018-09-23T11:24:35.601Z,6104
2018-09-23T11:25:35.570Z,6012
2018-09-23T11:26:35.595Z,5592
2018-09-23T11:27:50.283Z,5032
2018-09-23T11:28:35.382Z,4856
2018-09-23T11:29:35.407Z,4844
2018-09-23T11:30:50.500Z,4912
2018-09-23T11:31:35.453Z,4884
2018-09-23T11:32:35.476Z,4632
2018-09-23T11:33:35.808Z,4276
2018-09-23T11:34:35.782Z,4128
2018-09-23T11:35:35.803Z,4144
2018-09-23T11:36:50.489Z,4248
2018-09-23T11:37:50.509Z,4372
2018-09-23T11:38:50.534Z,4552
2018-09-23T11:39:35.905Z,4652
2018-09-23T11:40:50.586Z,4684
2018-09-23T11:41:50.088Z,4584
2018-09-23T11:43:35.991Z,4644
2018-09-23T11:44:36.017Z,4748
2018-09-23T11:45:36.045Z,4700
2018-09-23T11:46:50.461Z,4524
2018-09-23T11:47:50.486Z,4416
2018-09-23T11:48:35.848Z,4440
2018-09-23T11:49:36.142Z,4488
2018-09-23T11:50:36.155Z,4396
2018-09-23T11:51:50.835Z,4028
2018-09-23T11:52:36.206Z,3720
2018-09-23T11:53:50.876Z,3416
2018-09-23T11:54:35.468Z,3388
2018-09-23T11:55:35.756Z,3448
2018-09-23T11:56:36.290Z,3464
2018-09-23T11:57:36.309Z,3392
2018-09-23T11:58:36.334Z,3400
2018-09-23T11:59:36.356Z,3492
2018-09-23T12:00:36.120Z,3592
2018-09-23T12:01:36.408Z,3644
2018-09-23T12:02:36.430Z,3712
2018-09-23T12:03:36.450Z,3844
2018-09-23T12:04:36.726Z,3936
2018-09-23T12:05:35.981Z,4008
2018-09-23T12:06:36.514Z,4104
2018-09-23T12:07:36.542Z,4324
2018-09-23T12:08:36.593Z,4528
2018-09-23T12:09:51.251Z,4756
2018-09-23T12:10:51.504Z,4772
2018-09-23T12:12:36.647Z,4740
2018-09-23T12:13:36.537Z,4548
2018-09-23T12:14:36.181Z,4248
2018-09-23T12:15:36.980Z,4048
2018-09-23T12:16:36.484Z,3888
2018-09-23T12:17:36.763Z,3652
2018-09-23T12:18:36.914Z,3336
2018-09-23T12:19:36.819Z,2976
2018-09-23T12:20:36.837Z,2824
2018-09-23T12:21:36.855Z,2952
2018-09-23T12:22:36.878Z,3216
2018-09-23T12:23:36.944Z,3432
2018-09-23T12:24:51.591Z,3372
2018-09-23T12:25:51.824Z,3232
2018-09-23T12:26:36.718Z,3244
2018-09-23T12:27:36.994Z,3432
2018-09-23T12:28:36.754Z,3584
2018-09-23T12:29:37.334Z,3588
2018-09-23T12:30:36.283Z,3348
2018-09-23T12:31:51.744Z,2860
2018-09-23T12:32:37.113Z,2640
2018-09-23T12:33:36.874Z,2448
2018-09-23T12:34:51.816Z,2308
2018-09-23T12:35:37.170Z,2232
2018-09-23T12:36:36.677Z,2172
2018-09-23T12:37:37.216Z,2072
2018-09-23T12:38:36.987Z,2044
2018-09-23T12:39:37.534Z,2048
2018-09-23T12:40:37.288Z,2040
2018-09-23T12:41:37.048Z,2008
2018-09-23T12:42:37.331Z,1916
2018-09-23T12:43:37.090Z,1812
2018-09-23T12:44:37.115Z,1728
2018-09-23T12:45:52.063Z,1648
2018-09-23T12:46:37.427Z,1620
2018-09-23T12:47:37.437Z,1592
2018-09-23T12:48:37.217Z,1588
2018-09-23T12:49:37.482Z,1592
2018-09-23T12:50:37.510Z,1572
2018-09-23T12:51:37.269Z,1520
2018-09-23T12:52:37.549Z,1464
2018-09-23T12:53:37.573Z,1432
2018-09-23T12:54:37.336Z,1408
2018-09-23T12:55:37.613Z,1372
2018-09-23T12:57:06.959Z,1292
2018-09-23T12:58:37.680Z,1220
2018-09-23T12:59:37.701Z,1204
2018-09-23T13:00:37.467Z,1208
2018-09-23T13:02:38.143Z,1252
2018-09-23T13:03:37.793Z,1260
2018-09-23T13:04:52.474Z,1268
2018-09-23T13:05:37.832Z,1276
2018-09-23T13:06:37.855Z,1288
2018-09-23T13:07:37.881Z,1276
2018-09-23T13:08:37.896Z,1252
2018-09-23T13:09:37.925Z,1232
2018-09-23T13:10:37.943Z,1212
2018-09-23T13:11:37.962Z,1196
2018-09-23T13:12:52.670Z,1188
2018-09-23T13:13:38.019Z,1176
2018-09-23T13:14:52.689Z,1160
2018-09-23T13:15:38.074Z,1160
2018-09-23T13:17:38.100Z,1164
2018-09-23T13:18:38.226Z,1156
2018-09-23T13:19:53.054Z,1140
2018-09-23T13:20:38.163Z,1132
2018-09-23T13:21:38.193Z,1116
2018-09-23T13:22:52.608Z,1076
2018-09-23T13:24:38.250Z,1040
2018-09-23T13:25:38.282Z,1036
2018-09-23T13:26:38.288Z,1048
2018-09-23T13:27:38.311Z,1040
2018-09-23T13:28:53.148Z,1012
2018-09-23T13:29:38.354Z,992
2018-09-23T13:30:38.387Z,968
2018-09-23T13:31:52.799Z,956
2018-09-23T13:33:38.442Z,988
2018-09-23T13:34:38.460Z,1012
2018-09-23T13:35:38.222Z,1024
2018-09-23T13:37:38.525Z,1000
2018-09-23T13:38:52.948Z,976
2018-09-23T13:39:53.228Z,968
2018-09-23T13:40:38.590Z,968
2018-09-23T13:41:38.618Z,956
2018-09-23T13:42:38.634Z,952
2018-09-23T13:43:38.660Z,952
2018-09-23T13:44:53.433Z,948
2018-09-23T13:46:38.965Z,956
2018-09-23T13:47:38.482Z,972
2018-09-23T13:48:38.769Z,984
2018-09-23T13:49:38.523Z,976
2018-09-23T13:50:38.287Z,952
2018-09-23T13:51:38.825Z,920
2018-09-23T13:52:38.842Z,908
2018-09-23T13:53:38.873Z,916
2018-09-23T13:54:38.868Z,928
2018-09-23T13:55:38.391Z,936
2018-09-23T13:56:38.926Z,952
2018-09-23T13:58:38.969Z,984
2018-09-23T13:59:53.394Z,984
2018-09-23T14:00:38.502Z,964
2018-09-23T14:01:38.779Z,920
2018-09-23T14:02:39.055Z,884
2018-09-23T14:03:38.823Z,876
2018-09-23T14:04:39.146Z,884
2018-09-23T14:05:38.865Z,876
2018-09-23T14:07:53.820Z,808
2018-09-23T14:08:38.928Z,780
2018-09-23T14:09:39.208Z,752
2018-09-23T14:10:39.223Z,744
2018-09-23T14:11:38.985Z,768
2018-09-23T14:12:39.268Z,860
2018-09-23T14:13:53.949Z,1004
2018-09-23T14:14:39.307Z,1084
2018-09-23T14:15:39.068Z,1172
2018-09-23T14:16:39.354Z,1240
2018-09-23T14:17:39.381Z,1268
2018-09-23T14:18:39.393Z,1284
2018-09-23T14:19:39.559Z,1300
2018-09-23T14:20:53.831Z,1348
2018-09-23T14:21:39.453Z,1384
2018-09-23T14:23:39.498Z,1400
2018-09-23T14:24:39.254Z,1332
2018-09-23T14:25:53.680Z,1348
2018-09-23T14:26:39.562Z,1396
2018-09-23T14:27:39.318Z,1456
2018-09-23T14:28:39.336Z,1512
2018-09-23T14:29:39.616Z,1644
2018-09-23T14:30:39.379Z,1824
2018-09-23T14:31:54.059Z,1996
2018-09-23T14:32:39.162Z,2024
2018-09-23T14:33:39.440Z,2048
2018-09-23T14:34:39.723Z,1916
2018-09-23T14:35:39.618Z,1684
2018-09-23T14:36:39.930Z,1480